createdAt,value
2019-04-30T00:01:58.476Z,11.25
2019-04-30T00:06:59.740Z,11.26
2019-04-30T00:12:03.182Z,11.24
2019-04-30T00:17:10.678Z,11.25
2019-04-30T00:22:11.868Z,11.24
2019-04-30T00:27:15.270Z,11.28
2019-04-30T00:32:18.677Z,11.18
2019-04-30T00:37:22.077Z,11.17
2019-04-30T00:42:28.830Z,11.14
2019-04-30T00:47:30.636Z,11.12
2019-04-30T00:52:36.922Z,11.18
2019-04-30T00:57:43.747Z,11.16
2019-04-30T01:02:49.866Z,11.12
2019-04-30T01:07:55.010Z,11.04
2019-04-30T01:13:01.833Z,11.04
2019-04-30T01:18:03.800Z,10.98
2019-04-30T01:23:11.090Z,10.91
2019-04-30T01:28:16.485Z,10.90
2019-04-30T01:33:19.174Z,10.99
2019-04-30T01:38:22.720Z,10.96
2019-04-30T01:43:31.436Z,10.97
2019-04-30T01:48:31.274Z,10.95
2019-04-30T01:53:35.645Z,10.97
2019-04-30T01:58:40.693Z,10.95
2019-04-30T02:03:44.097Z,10.93
2019-04-30T02:08:49.273Z,10.88
2019-04-30T02:13:52.810Z,10.78
2019-04-30T02:18:56.223Z,10.82
2019-04-30T02:23:59.626Z,10.81
2019-04-30T02:29:03.036Z,10.78
2019-04-30T02:34:10.183Z,10.73
2019-04-30T02:39:13.313Z,10.63
2019-04-30T02:44:19.584Z,10.67
2019-04-30T02:49:23.805Z,10.58
2019-04-30T02:54:29.927Z,10.59
2019-04-30T02:59:33.355Z,10.59
2019-04-30T03:04:39.365Z,10.58
2019-04-30T03:09:41.925Z,10.58
2019-04-30T03:14:45.465Z,10.53
2019-04-30T03:19:50.542Z,10.54
2019-04-30T03:24:54.004Z,10.46
2019-04-30T03:29:59.959Z,10.34
2019-04-30T03:35:03.386Z,10.18
2019-04-30T03:40:13.258Z,10.21
2019-04-30T03:45:15.896Z,10.19
2019-04-30T03:50:19.950Z,10.20
2019-04-30T03:55:24.954Z,10.28
2019-04-30T04:00:46.792Z,10.30
2019-04-30T04:05:51.893Z,10.30
2019-04-30T04:10:56.974Z,10.28
2019-04-30T04:16:00.521Z,10.30
2019-04-30T04:21:11.692Z,10.27
2019-04-30T04:26:09.538Z,10.25
2019-04-30T04:31:14.370Z,10.21
2019-04-30T04:36:19.842Z,10.15
2019-04-30T04:41:22.931Z,10.02
2019-04-30T04:46:26.387Z,10.04
2019-04-30T04:51:38.164Z,10.08
2019-04-30T04:56:34.959Z,9.93
2019-04-30T05:01:38.833Z,10.02
2019-04-30T05:06:42.382Z,9.96
2019-04-30T05:11:45.782Z,9.97
2019-04-30T05:16:49.210Z,10.10
2019-04-30T05:21:52.657Z,10.29
2019-04-30T05:26:56.089Z,10.21
2019-04-30T05:31:59.499Z,10.29
2019-04-30T05:37:02.915Z,10.25
2019-04-30T05:42:06.471Z,10.36
2019-04-30T05:47:09.886Z,10.46
2019-04-30T05:52:13.302Z,10.34
2019-04-30T05:57:16.717Z,10.49
2019-04-30T06:02:20.137Z,10.68
2019-04-30T06:07:23.553Z,10.70
2019-04-30T06:12:31.414Z,10.85
2019-04-30T06:17:36.475Z,10.91
2019-04-30T06:22:40.632Z,10.94
2019-04-30T06:27:44.421Z,11.03
2019-04-30T06:32:49.627Z,11.05
2019-04-30T06:37:53.163Z,11.07
2019-04-30T06:43:00.393Z,11.19
2019-04-30T06:48:04.342Z,11.15
2019-04-30T06:53:09.292Z,11.12
2019-04-30T06:58:15.587Z,10.70
2019-04-30T07:03:19.170Z,10.63
2019-04-30T07:08:42.483Z,10.79
2019-04-30T07:13:45.996Z,11.05
2019-04-30T07:18:49.464Z,10.74
2019-04-30T07:23:53.039Z,10.87
2019-04-30T07:28:56.458Z,10.91
2019-04-30T07:33:59.949Z,11.13
2019-04-30T07:39:05.832Z,11.16
2019-04-30T07:44:10.990Z,11.55
2019-04-30T07:49:14.486Z,12.10
2019-04-30T07:54:18.981Z,12.31
2019-04-30T07:59:22.858Z,12.29
2019-04-30T08:04:29.258Z,12.38
2019-04-30T08:09:39.072Z,12.34
2019-04-30T08:14:39.097Z,12.00
2019-04-30T08:19:42.620Z,12.31
2019-04-30T08:24:46.102Z,12.61
2019-04-30T08:29:50.142Z,12.99
2019-04-30T08:34:53.577Z,13.46
2019-04-30T08:39:57.076Z,13.69
2019-04-30T08:45:00.487Z,13.92
2019-04-30T08:50:05.365Z,13.55
2019-04-30T08:55:16.237Z,13.85
2019-04-30T09:00:15.125Z,13.54
2019-04-30T09:05:20.584Z,14.36
2019-04-30T09:10:24.030Z,14.82
2019-04-30T09:15:29.040Z,15.54
2019-04-30T09:20:32.634Z,15.78
2019-04-30T09:25:36.396Z,15.44
2019-04-30T09:30:39.799Z,15.23
2019-04-30T09:35:43.411Z,15.80
2019-04-30T09:40:46.940Z,16.35
2019-04-30T09:45:50.371Z,17.12
2019-04-30T09:50:54.088Z,17.01
2019-04-30T09:55:59.554Z,17.24
2019-04-30T10:01:02.907Z,17.49
2019-04-30T10:06:06.403Z,17.79
2019-04-30T10:11:20.302Z,18.19
2019-04-30T10:16:40.374Z,18.43
2019-04-30T10:21:44.107Z,18.57
2019-04-30T10:26:47.606Z,17.98
2019-04-30T10:31:51.503Z,19.07
2019-04-30T10:36:54.933Z,19.01
2019-04-30T10:41:58.404Z,19.51
2019-04-30T10:47:01.869Z,19.24
2019-04-30T10:52:05.406Z,18.83
2019-04-30T10:57:09.180Z,19.04
2019-04-30T11:02:12.704Z,20.04
2019-04-30T11:07:16.257Z,20.75
2019-04-30T11:12:19.843Z,20.65
2019-04-30T11:17:23.567Z,20.24
2019-04-30T11:22:27.317Z,21.29
2019-04-30T11:27:31.494Z,19.24
2019-04-30T11:32:35.517Z,19.24
2019-04-30T11:37:39.073Z,20.09
2019-04-30T11:42:42.571Z,21.34
2019-04-30T11:47:53.270Z,21.20
2019-04-30T11:52:51.139Z,20.48
2019-04-30T11:57:54.607Z,21.87
2019-04-30T12:02:59.351Z,22.36
2019-04-30T12:08:04.513Z,21.38
2019-04-30T12:13:09.666Z,21.92
2019-04-30T12:18:13.047Z,22.93
2019-04-30T12:23:16.477Z,24.41
2019-04-30T12:28:19.917Z,24.56
2019-04-30T12:33:23.318Z,23.52
2019-04-30T12:38:26.742Z,23.49
2019-04-30T12:43:30.155Z,24.19
2019-04-30T12:48:52.676Z,24.77
2019-04-30T12:54:00.546Z,25.77
2019-04-30T12:59:03.949Z,24.23
2019-04-30T13:04:09.645Z,24.82
2019-04-30T13:09:13.120Z,25.61
2019-04-30T13:14:19.548Z,25.44
2019-04-30T13:19:22.248Z,24.43
2019-04-30T13:24:25.748Z,24.35
2019-04-30T13:29:31.737Z,24.55
2019-04-30T13:34:51.596Z,24.70
2019-04-30T13:39:56.705Z,25.81
2019-04-30T13:45:00.095Z,25.83
2019-04-30T13:50:04.834Z,24.66
2019-04-30T13:55:10.751Z,24.46
2019-04-30T14:00:22.121Z,25.72
2019-04-30T14:05:25.753Z,25.81
2019-04-30T14:10:30.893Z,24.94
2019-04-30T14:15:34.381Z,25.61
2019-04-30T14:20:37.968Z,24.52
2019-04-30T14:25:41.362Z,23.51
2019-04-30T14:30:44.861Z,24.13
2019-04-30T14:35:49.762Z,24.64
2019-04-30T14:40:53.789Z,24.76
2019-04-30T14:46:15.555Z,24.32
2019-04-30T14:51:19.193Z,24.39
2019-04-30T14:56:26.967Z,24.43
2019-04-30T15:01:32.036Z,25.24
2019-04-30T15:06:35.457Z,24.86
2019-04-30T15:11:38.967Z,24.59
2019-04-30T15:16:42.371Z,24.43
2019-04-30T15:21:45.843Z,24.42
2019-04-30T15:26:57.687Z,24.74
2019-04-30T15:31:55.091Z,24.95
2019-04-30T15:36:59.137Z,24.12
2019-04-30T15:42:02.843Z,23.80
2019-04-30T15:47:06.634Z,23.23
2019-04-30T15:52:11.074Z,22.97
2019-04-30T15:57:14.528Z,22.63
2019-04-30T16:02:25.418Z,22.66
2019-04-30T16:07:29.541Z,23.43
2019-04-30T16:12:52.072Z,22.89
2019-04-30T16:17:59.822Z,21.85
2019-04-30T16:23:03.324Z,22.43
2019-04-30T16:28:08.546Z,22.43
2019-04-30T16:33:12.657Z,22.05
2019-04-30T16:38:16.050Z,20.91
2019-04-30T16:43:20.333Z,20.91
2019-04-30T16:48:23.896Z,21.12
2019-04-30T16:53:27.300Z,20.82
2019-04-30T16:58:32.342Z,20.76
2019-04-30T17:03:38.809Z,20.76
2019-04-30T17:08:49.329Z,20.67
2019-04-30T17:13:53.797Z,20.58
2019-04-30T17:18:59.081Z,19.88
2019-04-30T17:24:02.539Z,19.60
2019-04-30T17:29:06.006Z,19.43
2019-04-30T17:34:09.414Z,19.21
2019-04-30T17:39:14.543Z,18.96
2019-04-30T17:44:18.696Z,18.73
2019-04-30T17:49:22.154Z,18.66
2019-04-30T17:54:25.653Z,18.61
2019-04-30T17:59:29.072Z,18.53
2019-04-30T18:04:32.757Z,18.33
2019-04-30T18:09:36.188Z,18.25
2019-04-30T18:14:39.696Z,18.16
2019-04-30T18:19:44.751Z,17.88
2019-04-30T18:24:49.875Z,17.87
2019-04-30T18:29:53.306Z,17.80
2019-04-30T18:34:56.735Z,17.73
2019-04-30T18:40:00.245Z,17.66
2019-04-30T18:45:03.809Z,17.50
2019-04-30T18:50:09.323Z,17.44
2019-04-30T18:55:13.106Z,17.20
2019-04-30T19:00:19.759Z,16.90
2019-04-30T19:05:25.143Z,16.79
2019-04-30T19:10:46.327Z,16.68
2019-04-30T19:16:18.173Z,16.40
2019-04-30T19:21:00.547Z,16.18
2019-04-30T19:26:04.121Z,15.85
2019-04-30T19:31:09.176Z,15.52
2019-04-30T19:36:13.534Z,15.25
2019-04-30T19:41:18.577Z,14.85
2019-04-30T19:46:22.093Z,14.70
2019-04-30T19:51:25.530Z,14.49
2019-04-30T19:56:30.309Z,14.42
2019-04-30T20:01:34.103Z,14.34
2019-04-30T20:06:38.636Z,14.33
2019-04-30T20:11:42.638Z,14.20
2019-04-30T20:16:46.112Z,14.06
2019-04-30T20:21:53.621Z,13.87
2019-04-30T20:27:05.811Z,13.93
2019-04-30T20:31:59.901Z,13.76
2019-04-30T20:37:03.359Z,13.68
2019-04-30T20:42:06.772Z,13.55
2019-04-30T20:47:10.213Z,13.61
2019-04-30T20:52:13.621Z,13.73
2019-04-30T20:57:17.042Z,13.66
2019-04-30T21:02:20.610Z,13.68
2019-04-30T21:07:23.968Z,13.65
2019-04-30T21:12:28.825Z,13.60
2019-04-30T21:17:32.382Z,13.50
2019-04-30T21:22:35.799Z,13.43
2019-04-30T21:27:40.120Z,13.46
2019-04-30T21:32:59.240Z,13.52
2019-04-30T21:38:02.787Z,13.53
2019-04-30T21:43:06.212Z,13.46
2019-04-30T21:48:09.638Z,13.29
2019-04-30T21:53:13.054Z,13.18
2019-04-30T21:58:16.476Z,12.88
2019-04-30T22:03:19.886Z,12.73
2019-04-30T22:08:23.345Z,12.64
2019-04-30T22:13:26.746Z,12.70
2019-04-30T22:18:30.175Z,12.70
2019-04-30T22:23:33.615Z,12.61
2019-04-30T22:28:37.052Z,12.49
2019-04-30T22:33:40.530Z,12.36
2019-04-30T22:38:45.591Z,12.32
2019-04-30T22:43:50.169Z,12.05
2019-04-30T22:48:53.610Z,11.80
2019-04-30T22:53:57.028Z,11.77
2019-04-30T22:59:00.526Z,11.77
2019-04-30T23:04:05.641Z,11.56
2019-04-30T23:09:11.476Z,11.41
2019-04-30T23:14:14.955Z,11.56
2019-04-30T23:19:18.402Z,11.58
2019-04-30T23:24:21.840Z,11.56
2019-04-30T23:29:25.347Z,11.51
2019-04-30T23:34:28.781Z,11.45
2019-04-30T23:39:32.177Z,11.59
2019-04-30T23:44:35.652Z,11.53
2019-04-30T23:49:39.079Z,11.45
2019-04-30T23:54:42.561Z,11.41
2019-04-30T23:59:45.981Z,11.22
